Time;durP1;ratioP1;P1;durP2;ratioP2;P2;SDS_P1;SDS_P2;PMS_P1;PMS_P2;Temp;Humidity;BMP_temperature;BMP_pressure;BME280_temperature;BME280_humidity;BME280_pressure;Samples;Min_cycle;Max_cycle;Signal;HPM_P1;HPM_P2
2023/11/26 00:00:53;;;;;;;1.95;1.17;;;;;;;0.32;100.00;148749.28;10415421;28;20041;-67
2023/11/26 00:05:55;;;;;;;1.27;1.05;;;;;;;0.37;100.00;148762.06;10420511;28;20124;-66
2023/11/26 00:10:56;;;;;;;1.90;1.40;;;;;;;0.41;100.00;148772.31;10422033;28;20072;-67
2023/11/26 00:16:03;;;;;;;2.22;1.40;;;;;;;0.25;100.00;148731.31;10404068;28;20046;-68
2023/11/26 00:21:06;;;;;;;1.35;1.00;;;;;;;0.07;100.00;148686.50;10404508;28;20037;-68
2023/11/26 00:26:07;;;;;;;2.15;0.93;;;;;;;0.14;100.00;148704.47;10423307;28;20056;-68
2023/11/26 00:31:11;;;;;;;2.15;1.25;;;;;;;0.11;100.00;148695.50;10422580;28;20052;-67
2023/11/26 00:36:15;;;;;;;0.75;0.70;;;;;;;0.28;100.00;148737.75;10422050;28;20052;-68
2023/11/26 00:41:17;;;;;;;1.40;0.90;;;;;;;0.40;100.00;148768.44;10387546;28;20132;-67
2023/11/26 00:46:20;;;;;;;1.50;0.77;;;;;;;0.19;100.00;148715.97;10421228;28;20056;-68
2023/11/26 00:51:24;;;;;;;1.17;0.82;;;;;;;0.19;100.00;148717.25;10403329;28;20406;-67
2023/11/26 00:56:26;;;;;;;0.75;0.73;;;;;;;0.04;100.00;148678.81;10403248;28;20119;-68
2023/11/26 01:01:29;;;;;;;1.88;0.70;;;;;;;-0.02;100.00;148663.47;10402927;28;20054;-68
2023/11/26 01:06:31;;;;;;;0.70;0.70;;;;;;;0.10;100.00;148694.22;10402502;28;20118;-68
2023/11/26 01:11:33;;;;;;;1.73;1.00;;;;;;;-0.06;100.00;148654.50;10420296;28;20043;-68
2023/11/26 01:16:35;;;;;;;1.20;0.70;;;;;;;-0.06;100.00;148654.50;10419707;28;20046;-67
2023/11/26 01:21:38;;;;;;;1.50;0.90;;;;;;;-0.05;100.00;148655.78;10419955;28;20041;-68
2023/11/26 01:26:39;;;;;;;0.85;0.70;;;;;;;-0.04;100.00;148658.38;10421137;28;20049;-69
2023/11/26 01:31:41;;;;;;;0.80;0.80;;;;;;;-0.02;100.00;148663.47;10420495;28;20041;-69
2023/11/26 01:36:43;;;;;;;1.35;0.88;;;;;;;0.08;100.00;148687.78;10420646;28;20073;-69
2023/11/26 01:41:46;;;;;;;2.50;0.85;;;;;;;0.05;100.00;148680.13;10401528;28;20052;-69
2023/11/26 01:46:47;;;;;;;1.02;0.82;;;;;;;-0.11;100.00;148641.72;10401462;28;20056;-69
2023/11/26 01:51:49;;;;;;;2.55;0.90;;;;;;;-0.09;100.00;148645.53;10400183;28;20485;-69
2023/11/26 01:56:54;;;;;;;1.30;0.77;;;;;;;-0.09;100.00;148645.53;10400846;28;20050;-68
2023/11/26 02:01:56;;;;;;;0.88;0.70;;;;;;;-0.05;100.00;148655.78;10435750;22;20072;-71
2023/11/26 02:07:00;;;;;;;1.45;0.80;;;;;;;-0.15;100.00;148631.47;10500158;28;20556;-70
2023/11/26 02:12:07;;;;;;;0.90;0.77;;;;;;;-0.09;100.00;148646.88;10498669;28;20037;-70
2023/11/26 02:17:09;;;;;;;1.02;0.80;;;;;;;-0.21;100.00;148614.84;10497928;28;20082;-69
2023/11/26 02:22:10;;;;;;;2.25;0.90;;;;;;;-0.56;100.00;148527.81;10498019;28;20388;-70
2023/11/26 02:27:14;;;;;;;0.68;0.68;;;;;;;-0.69;100.00;148494.56;10497733;28;20044;-69
2023/11/26 02:32:15;;;;;;;1.52;0.60;;;;;;;-0.75;100.00;148480.50;10497419;28;20090;-69
2023/11/26 02:37:17;;;;;;;0.90;0.70;;;;;;;-0.80;100.00;148468.97;10497132;28;20076;-69
2023/11/26 02:42:19;;;;;;;0.80;0.73;;;;;;;-1.03;100.00;148410.09;10496962;28;20064;-69
2023/11/26 02:47:21;;;;;;;1.25;0.77;;;;;;;-0.98;100.00;148421.63;10497450;28;20075;-69
2023/11/26 02:52:23;;;;;;;2.90;0.80;;;;;;;-0.79;100.00;148471.53;10498211;28;20487;-70
2023/11/26 02:57:24;;;;;;;0.70;0.70;;;;;;;-0.79;100.00;148470.25;10498623;28;20115;-70
2023/11/26 03:02:34;;;;;;;1.73;1.10;;;;;;;-0.62;100.00;148512.44;10498293;28;20127;-69
2023/11/26 03:07:36;;;;;;;2.88;1.25;;;;;;;-0.64;100.00;148508.63;10496514;28;20057;-69
2023/11/26 03:12:56;;;;;;;2.22;1.35;;;;;;;-0.57;100.00;148525.28;10498724;28;20090;-70
2023/11/26 03:17:58;;;;;;;2.83;1.30;;;;;;;-0.52;100.00;148539.34;10497412;28;20112;-69
2023/11/26 03:22:59;;;;;;;2.28;1.30;;;;;;;-0.40;100.00;148568.78;10497657;28;20446;-70
2023/11/26 03:28:04;;;;;;;1.67;1.13;;;;;;;-0.34;100.00;148582.84;10497334;28;20064;-70
2023/11/26 03:33:07;;;;;;;1.98;1.08;;;;;;;-0.39;100.00;148570.06;10498439;28;20068;-70
2023/11/26 03:38:09;;;;;;;0.95;0.60;;;;;;;-0.36;100.00;148577.72;10497399;28;20044;-70
2023/11/26 03:43:13;;;;;;;1.15;0.85;;;;;;;-0.24;100.00;148607.16;10504430;28;20102;-70
2023/11/26 03:48:15;;;;;;;1.40;0.85;;;;;;;-0.49;100.00;148545.72;10505185;28;20033;-70
2023/11/26 03:53:17;;;;;;;0.65;0.50;;;;;;;-0.64;100.00;148508.63;10505073;28;20503;-70
2023/11/26 03:58:18;;;;;;;1.50;0.65;;;;;;;-0.77;100.00;148476.63;10503421;28;20522;-70
2023/11/26 04:03:20;;;;;;;1.38;0.77;;;;;;;-0.72;100.00;148486.88;10504734;28;20177;-70
2023/11/26 04:08:22;;;;;;;0.93;0.77;;;;;;;-0.64;100.00;148508.63;10502919;28;20487;-71
2023/11/26 04:13:27;;;;;;;1.17;0.77;;;;;;;-0.66;100.00;148503.53;10502504;28;20625;-71
2023/11/26 04:18:30;;;;;;;3.05;0.60;;;;;;;-0.83;100.00;148460.03;10504166;28;20038;-72
2023/11/26 04:23:32;;;;;;;0.82;0.80;;;;;;;-0.90;100.00;148443.38;10504147;28;20048;-71
2023/11/26 04:28:35;;;;;;;0.52;0.50;;;;;;;-0.87;100.00;148449.78;10503430;28;20097;-71
2023/11/26 04:33:36;;;;;;;0.75;0.65;;;;;;;-0.90;100.00;148443.38;10503918;28;20045;-71
2023/11/26 04:38:38;;;;;;;0.60;0.60;;;;;;;-1.00;100.00;148417.78;10503129;28;20411;-71
2023/11/26 04:43:40;;;;;;;1.73;0.70;;;;;;;-0.97;100.00;148425.50;10501678;28;20526;-71
2023/11/26 04:48:43;;;;;;;0.60;0.60;;;;;;;-1.11;100.00;148389.63;10502752;28;20503;-71
2023/11/26 04:53:45;;;;;;;0.95;0.80;;;;;;;-1.18;100.00;148371.75;10502934;28;20140;-71
2023/11/26 04:58:47;;;;;;;0.75;0.75;;;;;;;-1.16;100.00;148376.84;10504108;28;20111;-73
2023/11/26 05:03:48;;;;;;;0.90;0.90;;;;;;;-0.78;100.00;148472.81;10500999;28;20440;-71
2023/11/26 05:08:50;;;;;;;0.88;0.85;;;;;;;-1.03;100.00;148410.09;10502175;28;20496;-71
2023/11/26 05:13:52;;;;;;;0.57;0.57;;;;;;;-0.96;100.00;148428.03;10502110;28;20041;-71
2023/11/26 05:18:54;;;;;;;0.88;0.82;;;;;;;-0.94;100.00;148433.13;10502431;28;20127;-71
2023/11/26 05:23:56;;;;;;;1.02;0.70;;;;;;;-0.85;100.00;148456.16;10501736;28;20075;-71
2023/11/26 05:28:57;;;;;;;0.93;0.82;;;;;;;-0.72;100.00;148488.13;10500330;28;20403;-71
2023/11/26 05:33:59;;;;;;;0.52;0.52;;;;;;;-0.64;100.00;148508.63;10500028;28;20049;-71
2023/11/26 05:39:01;;;;;;;0.63;0.55;;;;;;;-0.87;100.00;148451.06;10500844;28;20161;-71
2023/11/26 05:44:04;;;;;;;1.02;0.50;;;;;;;-0.65;100.00;148504.78;10501232;28;20079;-71
2023/11/26 05:49:06;;;;;;;0.50;0.50;;;;;;;-0.91;100.00;148440.81;10499972;28;20040;-71
2023/11/26 05:54:08;;;;;;;1.95;0.80;;;;;;;-0.91;100.00;148439.53;10500836;28;20561;-71
2023/11/26 05:59:10;;;;;;;0.82;0.70;;;;;;;-0.76;100.00;148477.91;10499375;28;20470;-70
2023/11/26 06:04:12;;;;;;;0.80;0.60;;;;;;;-0.83;100.00;148460.03;10498142;28;20488;-70
2023/11/26 06:09:14;;;;;;;0.65;0.60;;;;;;;-0.83;100.00;148460.03;10499631;28;20119;-71
2023/11/26 06:14:16;;;;;;;0.60;0.60;;;;;;;-0.76;100.00;148477.91;10499504;28;20051;-70
2023/11/26 06:19:17;;;;;;;0.70;0.60;;;;;;;-0.70;100.00;148492.00;10499859;28;20041;-71
2023/11/26 06:24:19;;;;;;;1.63;0.70;;;;;;;-0.75;100.00;148480.50;10498890;28;20475;-71
2023/11/26 06:29:21;;;;;;;0.88;0.80;;;;;;;-0.88;100.00;148447.25;10498819;28;20040;-71
2023/11/26 06:34:26;;;;;;;0.80;0.65;;;;;;;-0.68;100.00;148497.09;10500400;28;20515;-69
2023/11/26 06:39:30;;;;;;;0.80;0.60;;;;;;;-0.99;100.00;148419.06;10499188;28;20049;-71
2023/11/26 06:44:31;;;;;;;1.35;0.98;;;;;;;-0.96;100.00;148428.03;10498670;28;20098;-71
2023/11/26 06:49:33;;;;;;;1.60;0.93;;;;;;;-0.89;100.00;148445.91;10499004;28;20036;-70
2023/11/26 06:54:35;;;;;;;0.52;0.50;;;;;;;-0.91;100.00;148439.53;10498558;28;20050;-71
2023/11/26 06:59:37;;;;;;;1.00;0.70;;;;;;;-0.98;100.00;148421.63;10498362;28;20047;-71
2023/11/26 07:04:41;;;;;;;0.60;0.60;;;;;;;-0.86;100.00;148453.59;10498268;28;20044;-69
2023/11/26 07:09:43;;;;;;;0.77;0.77;;;;;;;-1.07;100.00;148399.88;10498267;28;20044;-71
2023/11/26 07:14:44;;;;;;;1.52;0.82;;;;;;;-0.99;100.00;148420.34;10502619;28;20078;-70
2023/11/26 07:19:46;;;;;;;1.75;1.10;;;;;;;-0.78;100.00;148472.81;10506698;28;20044;-70
2023/11/26 07:24:48;;;;;;;1.00;0.80;;;;;;;-0.79;100.00;148470.25;10506371;28;20056;-70
2023/11/26 07:29:50;;;;;;;0.98;0.80;;;;;;;-0.76;100.00;148479.19;10507406;28;20040;-70
2023/11/26 07:34:53;;;;;;;1.55;1.10;;;;;;;-0.98;100.00;148422.88;10511060;28;20044;-70
2023/11/26 07:39:55;;;;;;;5.15;3.42;;;;;;;-0.83;100.00;148460.03;10510798;28;20407;-70
2023/11/26 07:44:57;;;;;;;3.00;2.67;;;;;;;-0.79;100.00;148471.53;10509183;28;20053;-71
2023/11/26 07:50:00;;;;;;;21.70;9.85;;;;;;;-0.91;100.00;148440.81;10508088;28;20051;-71
2023/11/26 07:55:05;;;;;;;2.47;1.75;;;;;;;-1.06;100.00;148402.47;10508936;28;20129;-71
2023/11/26 08:00:09;;;;;;;5.90;4.82;;;;;;;-0.80;100.00;148467.66;10493816;28;20056;-70
2023/11/26 08:05:18;;;;;;;1.88;1.55;;;;;;;-0.77;100.00;148476.63;10555415;22;20044;-68
2023/11/26 08:10:26;;;;;;;7.53;4.87;;;;;;;-1.01;100.00;148415.25;10547827;28;20085;-68
2023/11/26 08:15:28;;;;;;;2.97;1.73;;;;;;;-1.08;100.00;148398.59;10548764;28;20741;-70
2023/11/26 08:20:30;;;;;;;2.00;1.30;;;;;;;-0.96;100.00;148428.03;10548532;28;20032;-68
2023/11/26 08:25:34;;;;;;;1.80;1.65;;;;;;;-0.98;100.00;148421.63;10547284;28;20131;-68
2023/11/26 08:30:42;;;;;;;1.38;1.27;;;;;;;-0.95;100.00;148429.31;10548469;28;20114;-68
2023/11/26 08:35:44;;;;;;;1.55;1.10;;;;;;;-0.87;100.00;148449.78;10529774;28;20048;-67
2023/11/26 08:40:46;;;;;;;1.42;1.13;;;;;;;-0.73;100.00;148485.59;10547773;28;20091;-67
2023/11/26 08:45:48;;;;;;;1.20;1.10;;;;;;;-0.72;100.00;148488.13;10528201;28;20048;-67
2023/11/26 08:50:50;;;;;;;1.15;1.00;;;;;;;-0.64;100.00;148507.34;10529784;28;20044;-68
2023/11/26 08:55:52;;;;;;;1.35;0.88;;;;;;;-0.62;100.00;148513.75;10546329;28;20127;-68
2023/11/26 09:00:56;;;;;;;1.65;1.30;;;;;;;-0.68;100.00;148497.09;10511499;28;20054;-68
2023/11/26 09:05:58;;;;;;;1.75;1.42;;;;;;;-0.69;100.00;148495.84;10546173;28;20040;-68
2023/11/26 09:10:59;;;;;;;0.77;0.77;;;;;;;-0.85;100.00;148456.16;10539821;28;20483;-68
2023/11/26 09:16:01;;;;;;;1.33;1.23;;;;;;;-0.74;100.00;148483.03;10503455;28;20571;-68
2023/11/26 09:21:06;;;;;;;5.05;4.00;;;;;;;-0.69;100.00;148494.56;10545922;28;20040;-68
2023/11/26 09:26:11;;;;;;;2.35;1.88;;;;;;;-0.81;100.00;148466.38;10529186;28;20045;-68
2023/11/26 09:31:13;;;;;;;4.13;2.95;;;;;;;-0.58;100.00;148522.69;10502055;28;20110;-68
2023/11/26 09:36:15;;;;;;;5.25;4.15;;;;;;;-0.55;100.00;148530.38;10501194;28;20062;-69
2023/11/26 09:41:19;;;;;;;5.47;4.97;;;;;;;-0.41;100.00;148566.19;10501820;28;20044;-70
2023/11/26 09:46:21;;;;;;;9.35;6.65;;;;;;;-0.29;100.00;148596.91;10483198;28;20396;-68
2023/11/26 09:51:24;;;;;;;6.80;6.10;;;;;;;-0.02;100.00;148663.47;10502072;28;20545;-68
2023/11/26 09:56:26;;;;;;;6.28;5.43;;;;;;;0.04;100.00;148677.53;10501331;28;20087;-67
2023/11/26 10:01:28;;;;;;;6.70;6.05;;;;;;;-0.03;100.00;148660.94;10500848;28;20080;-67
2023/11/26 10:06:30;;;;;;;6.15;4.90;;;;;;;0.07;100.00;148686.50;10500746;28;20051;-67
2023/11/26 10:11:32;;;;;;;4.38;3.97;;;;;;;0.00;100.00;148668.63;10509241;28;20502;-67
2023/11/26 10:16:35;;;;;;;3.63;3.15;;;;;;;0.28;98.97;148737.75;10526716;28;20070;-67
2023/11/26 10:21:51;;;;;;;3.25;2.95;;;;;;;0.09;99.09;148691.66;10522502;28;20467;-67
2023/11/26 10:26:54;;;;;;;4.72;3.47;;;;;;;0.12;98.24;148699.31;10541289;28;20471;-67
2023/11/26 10:32:06;;;;;;;3.42;3.13;;;;;;;0.20;97.31;148718.53;10541390;28;20496;-67
2023/11/26 10:37:22;;;;;;;3.95;2.92;;;;;;;0.15;96.69;148705.72;10538158;28;20579;-66
2023/11/26 10:42:29;;;;;;;4.40;3.55;;;;;;;0.70;94.54;148845.28;10542022;28;20035;-68
2023/11/26 10:47:39;;;;;;;3.55;3.25;;;;;;;1.14;89.05;148954.19;10542375;28;20469;-68
2023/11/26 10:52:58;;;;;;;4.70;3.75;;;;;;;0.82;89.12;148874.78;10542279;28;20036;-68
2023/11/26 10:58:12;;;;;;;2.85;2.40;;;;;;;0.94;86.90;148904.25;10541875;28;20131;-68
2023/11/26 11:03:15;;;;;;;3.50;2.15;;;;;;;0.85;85.39;148881.19;10542841;28;20044;-68
2023/11/26 11:08:17;;;;;;;3.47;2.85;;;;;;;1.26;82.38;148984.97;10541603;28;20046;-69
2023/11/26 11:13:20;;;;;;;2.97;2.42;;;;;;;0.90;84.41;148895.28;10540670;28;20040;-68
2023/11/26 11:18:28;;;;;;;2.35;1.80;;;;;;;0.69;85.47;148841.47;10541811;28;20052;-68
2023/11/26 11:23:35;;;;;;;5.25;3.33;;;;;;;0.37;87.04;148762.06;10541553;28;20136;-67
2023/11/26 11:28:48;;;;;;;8.48;7.18;;;;;;;0.51;84.19;148796.63;10540059;28;20051;-69
2023/11/26 11:33:55;;;;;;;4.07;3.35;;;;;;;0.57;83.36;148810.72;10540074;28;20127;-68
2023/11/26 11:39:04;;;;;;;4.13;2.88;;;;;;;0.49;85.45;148792.81;10540133;28;20048;-69
2023/11/26 11:44:24;;;;;;;3.03;2.28;;;;;;;0.54;85.74;148803.06;10540607;28;20046;-68
2023/11/26 11:49:46;;;;;;;2.50;1.90;;;;;;;0.16;88.86;148708.28;10540022;28;20405;-69
2023/11/26 11:54:54;;;;;;;4.93;2.42;;;;;;;0.20;90.02;148718.53;10521904;28;20067;-68
2023/11/26 11:59:56;;;;;;;2.03;1.65;;;;;;;0.13;89.55;148700.59;10523181;28;20044;-69
2023/11/26 12:04:58;;;;;;;15.75;7.35;;;;;;;0.18;88.73;148714.72;10549068;28;20074;-69
2023/11/26 12:10:01;;;;;;;6.38;4.00;;;;;;;0.46;87.68;148783.84;10548626;28;20044;-68
2023/11/26 12:15:09;;;;;;;2.92;2.13;;;;;;;0.38;89.42;148763.34;10548061;28;20388;-69
2023/11/26 12:20:11;;;;;;;3.35;1.80;;;;;;;0.31;88.99;148746.72;10546498;28;20032;-67
2023/11/26 12:25:14;;;;;;;6.32;4.43;;;;;;;0.45;89.20;148782.56;10547180;28;20070;-69
2023/11/26 12:30:16;;;;;;;3.78;2.78;;;;;;;0.38;89.28;148764.63;10547129;28;20050;-68
2023/11/26 12:35:20;;;;;;;3.92;2.80;;;;;;;0.58;88.18;148814.59;10504888;28;20090;-68
2023/11/26 12:40:22;;;;;;;3.40;2.03;;;;;;;0.41;86.96;148771.03;10515528;28;20093;-69
2023/11/26 12:45:24;;;;;;;5.22;2.78;;;;;;;0.38;87.98;148763.34;10528697;28;20435;-70
2023/11/26 12:50:43;;;;;;;2.95;1.70;;;;;;;0.49;88.10;148791.53;10545824;28;20045;-69
2023/11/26 12:55:46;;;;;;;8.55;3.95;;;;;;;0.87;84.42;148886.31;10546123;28;20048;-68
2023/11/26 13:00:48;;;;;;;20.25;12.95;;;;;;;1.21;81.78;148973.44;10544908;28;20040;-68
2023/11/26 13:05:51;;;;;;;5.47;3.38;;;;;;;0.90;83.30;148894.00;10544752;28;20085;-68
2023/11/26 13:10:57;;;;;;;1.67;1.30;;;;;;;0.60;86.15;148819.69;10544893;28;20040;-68
2023/11/26 13:16:02;;;;;;;2.83;1.40;;;;;;;0.52;87.81;148797.91;10545499;28;20039;-69
2023/11/26 13:21:06;;;;;;;2.20;1.33;;;;;;;0.57;86.86;148810.72;10545252;28;20689;-68
2023/11/26 13:26:10;;;;;;;3.08;1.42;;;;;;;0.46;88.27;148785.13;10544185;28;20487;-68
2023/11/26 13:31:12;;;;;;;4.55;1.70;;;;;;;0.62;87.64;148823.53;10543859;28;20047;-69
2023/11/26 13:36:14;;;;;;;1.73;1.27;;;;;;;0.56;88.41;148808.16;10544789;28;20079;-68
2023/11/26 13:41:18;;;;;;;2.65;2.00;;;;;;;0.41;89.11;148771.03;10543417;28;20139;-69
2023/11/26 13:46:20;;;;;;;2.55;1.48;;;;;;;0.48;89.64;148790.22;10525338;28;20062;-69
2023/11/26 13:51:22;;;;;;;4.57;3.00;;;;;;;0.64;89.84;148829.94;10541757;28;20040;-69
2023/11/26 13:56:25;;;;;;;5.57;3.92;;;;;;;0.57;90.43;148812.00;10543391;28;20044;-68
2023/11/26 14:01:27;;;;;;;9.50;6.30;;;;;;;0.46;91.40;148785.13;10542931;28;20464;-70
2023/11/26 14:06:30;;;;;;;5.40;2.38;;;;;;;0.46;91.80;148783.84;10520513;22;20041;-67
2023/11/26 14:11:31;;;;;;;3.40;2.17;;;;;;;0.29;92.60;148741.56;10501322;28;20044;-67
2023/11/26 14:16:33;;;;;;;3.95;2.30;;;;;;;0.35;92.49;148756.91;10482326;28;20138;-67
2023/11/26 14:21:35;;;;;;;6.95;5.93;;;;;;;0.32;93.69;148748.00;10499736;28;20041;-67
2023/11/26 14:26:37;;;;;;;3.03;2.58;;;;;;;0.42;92.82;148773.59;10481578;28;20059;-67
2023/11/26 14:31:39;;;;;;;2.63;1.90;;;;;;;0.39;93.65;148765.91;10501593;28;20044;-67
2023/11/26 14:36:41;;;;;;;3.03;2.25;;;;;;;0.45;94.08;148782.56;10499651;28;20044;-67
2023/11/26 14:41:43;;;;;;;2.80;2.00;;;;;;;0.40;94.39;148769.78;10501009;28;20169;-67
2023/11/26 14:46:45;;;;;;;3.45;2.40;;;;;;;0.29;95.45;148740.28;10499976;28;20044;-67
2023/11/26 14:51:47;;;;;;;5.43;3.80;;;;;;;0.25;95.60;148731.31;10500244;28;20036;-66
2023/11/26 14:56:51;;;;;;;2.17;1.75;;;;;;;0.14;96.40;148703.19;10500537;28;20040;-69
2023/11/26 15:01:53;;;;;;;2.97;2.22;;;;;;;0.17;96.33;148710.84;10499677;28;20037;-69
2023/11/26 15:06:55;;;;;;;3.55;2.45;;;;;;;0.10;96.46;148692.94;10498631;28;20114;-69
2023/11/26 15:11:57;;;;;;;4.10;2.42;;;;;;;0.08;97.16;148689.06;10500153;28;20044;-70
2023/11/26 15:16:59;;;;;;;3.53;2.13;;;;;;;0.24;97.41;148728.78;10501566;28;20045;-69
2023/11/26 15:22:06;;;;;;;4.60;2.30;;;;;;;0.42;98.38;148774.88;10500031;28;20407;-69
2023/11/26 15:27:08;;;;;;;;;;;;;;;0.40;98.24;148768.44;10500531;28;20044;-70
2023/11/26 15:32:10;;;;;;;3.75;1.92;;;;;;;0.53;97.72;148800.47;10499512;28;20310;-68
2023/11/26 15:37:13;;;;;;;2.42;1.73;;;;;;;0.34;97.98;148754.38;10508013;28;20043;-68
2023/11/26 15:42:15;;;;;;;2.55;1.88;;;;;;;0.01;100.00;148669.91;10506897;28;20047;-68
2023/11/26 15:47:17;;;;;;;3.70;1.88;;;;;;;0.12;100.00;148698.03;10489733;28;20396;-69
2023/11/26 15:52:18;;;;;;;3.30;2.30;;;;;;;0.05;100.00;148680.13;10506291;28;20044;-70
2023/11/26 15:57:23;;;;;;;4.20;2.83;;;;;;;-0.13;100.00;148636.63;10506317;28;20106;-69
2023/11/26 16:02:25;;;;;;;4.28;3.20;;;;;;;0.16;100.00;148708.28;10507777;28;20041;-71
2023/11/26 16:07:28;;;;;;;5.68;2.80;;;;;;;0.14;100.00;148703.19;10506390;28;20040;-69
2023/11/26 16:12:30;;;;;;;5.25;4.13;;;;;;;0.24;100.00;148730.06;10506352;28;20071;-68
2023/11/26 16:17:32;;;;;;;5.10;3.45;;;;;;;0.28;100.00;148737.75;10505477;28;20048;-68
2023/11/26 16:22:36;;;;;;;5.13;4.45;;;;;;;0.25;100.00;148731.31;10490171;28;20068;-68
2023/11/26 16:27:38;;;;;;;5.40;4.28;;;;;;;0.14;100.00;148703.19;10505588;28;20067;-68
2023/11/26 16:32:41;;;;;;;5.88;5.00;;;;;;;0.12;100.00;148699.31;10505060;28;20040;-69
2023/11/26 16:37:43;;;;;;;4.63;4.22;;;;;;;0.37;100.00;148760.78;10505686;28;20048;-69
2023/11/26 16:42:45;;;;;;;4.93;3.85;;;;;;;0.38;100.00;148764.63;10488059;28;20454;-69
2023/11/26 16:47:53;;;;;;;5.93;5.05;;;;;;;0.27;100.00;148736.47;10490738;28;20049;-69
2023/11/26 16:52:55;;;;;;;4.15;3.70;;;;;;;0.04;100.00;148678.81;10505588;28;20044;-68
2023/11/26 16:57:57;;;;;;;4.93;4.18;;;;;;;0.31;100.00;148746.72;10485522;28;20504;-68
2023/11/26 17:02:59;;;;;;;6.07;4.85;;;;;;;0.20;100.00;148719.81;10504202;28;20115;-68
2023/11/26 17:08:01;;;;;;;3.65;2.45;;;;;;;0.48;100.00;148790.22;10505908;28;20048;-68
2023/11/26 17:13:03;;;;;;;3.45;2.35;;;;;;;0.59;100.00;148817.13;10503621;28;20036;-68
2023/11/26 17:18:05;;;;;;;4.35;2.90;;;;;;;0.66;100.00;148833.78;10501985;28;20072;-68
2023/11/26 17:23:07;;;;;;;2.88;2.28;;;;;;;0.89;100.00;148892.72;10504051;28;20044;-70
2023/11/26 17:28:09;;;;;;;2.90;2.00;;;;;;;0.97;100.00;148913.25;10505486;28;20041;-69
2023/11/26 17:33:11;;;;;;;2.60;1.98;;;;;;;0.92;100.00;148899.09;10503628;28;20060;-70
2023/11/26 17:38:14;;;;;;;3.50;2.00;;;;;;;0.90;100.00;148895.28;10502348;28;20044;-69
2023/11/26 17:43:16;;;;;;;3.92;2.80;;;;;;;0.98;100.00;148914.50;10502081;28;20090;-70
2023/11/26 17:48:18;;;;;;;3.33;2.53;;;;;;;0.81;100.00;148870.94;10502840;28;20048;-69
2023/11/26 17:53:20;;;;;;;2.90;2.50;;;;;;;0.69;100.00;148841.47;10502903;28;20071;-70
2023/11/26 17:58:22;;;;;;;3.38;2.53;;;;;;;0.61;100.00;148822.25;10501882;28;20425;-69
2023/11/26 18:03:24;;;;;;;7.15;4.40;;;;;;;0.59;100.00;148815.88;10499669;28;20036;-69
2023/11/26 18:08:26;;;;;;;4.80;3.55;;;;;;;0.63;100.00;148826.13;10500934;28;20055;-70
2023/11/26 18:13:28;;;;;;;2.63;2.42;;;;;;;0.72;100.00;148850.44;10503746;28;20032;-69
2023/11/26 18:18:33;;;;;;;4.25;3.53;;;;;;;0.76;100.00;148859.41;10500380;28;20052;-69
2023/11/26 18:23:35;;;;;;;3.08;2.78;;;;;;;0.69;100.00;148842.75;10495566;28;20076;-69
2023/11/26 18:28:38;;;;;;;3.90;3.30;;;;;;;0.68;100.00;148838.91;10496595;28;20041;-69
2023/11/26 18:33:40;;;;;;;4.03;3.50;;;;;;;0.68;100.00;148838.91;10501380;28;20041;-69
2023/11/26 18:38:42;;;;;;;4.50;3.67;;;;;;;0.68;100.00;148838.91;10500193;28;20044;-69
2023/11/26 18:43:44;;;;;;;4.03;3.55;;;;;;;0.65;100.00;148832.50;10501486;28;20043;-69
2023/11/26 18:48:46;;;;;;;4.28;3.00;;;;;;;0.87;100.00;148886.31;10500227;28;20539;-69
2023/11/26 18:53:48;;;;;;;4.72;3.67;;;;;;;0.69;100.00;148842.75;10503565;28;20037;-69
2023/11/26 18:58:50;;;;;;;4.68;3.78;;;;;;;0.77;100.00;148860.69;10486335;28;20056;-70
2023/11/26 19:03:52;;;;;;;9.73;6.45;;;;;;;0.84;100.00;148879.94;10498752;28;20067;-69
2023/11/26 19:08:56;;;;;;;5.57;4.45;;;;;;;0.84;100.00;148879.94;10500596;28;20048;-70
2023/11/26 19:13:58;;;;;;;10.93;7.15;;;;;;;1.37;100.00;149011.88;10500859;28;20060;-68
2023/11/26 19:19:00;;;;;;;17.35;13.13;;;;;;;1.39;100.00;149018.28;10501103;28;20044;-70
2023/11/26 19:24:03;;;;;;;9.02;6.55;;;;;;;1.40;100.00;149020.84;10500361;28;20074;-69
2023/11/26 19:29:05;;;;;;;4.70;4.30;;;;;;;1.51;100.00;149049.06;10499760;28;20044;-69
2023/11/26 19:34:07;;;;;;;6.60;5.95;;;;;;;1.54;100.00;149054.16;10501110;28;20079;-69
2023/11/26 19:39:09;;;;;;;7.40;6.70;;;;;;;1.69;100.00;149092.66;10496353;28;20051;-69
2023/11/26 19:44:13;;;;;;;10.80;9.70;;;;;;;1.64;100.00;149079.78;10499604;28;20127;-69
2023/11/26 19:49:15;;;;;;;68.43;28.88;;;;;;;1.57;100.00;149061.88;10489806;28;20123;-69
2023/11/26 19:54:17;;;;;;;102.25;39.83;;;;;;;1.56;100.00;149060.59;10499680;28;20047;-69
2023/11/26 19:59:19;;;;;;;6.80;6.03;;;;;;;1.42;100.00;149026.00;10502689;28;20044;-69
2023/11/26 20:04:21;;;;;;;10.25;9.32;;;;;;;1.33;100.00;149002.94;10500998;28;20040;-70
2023/11/26 20:09:23;;;;;;;6.22;5.57;;;;;;;1.67;100.00;149088.78;10566275;22;20088;-69
2023/11/26 20:14:25;;;;;;;7.95;6.07;;;;;;;1.45;100.00;149032.38;10582759;28;20043;-69
2023/11/26 20:19:26;;;;;;;5.25;4.75;;;;;;;1.41;100.00;149022.13;10581660;28;20043;-70
2023/11/26 20:24:28;;;;;;;6.72;6.00;;;;;;;1.51;100.00;149047.78;10586797;28;20047;-69
2023/11/26 20:29:31;;;;;;;6.40;5.82;;;;;;;1.57;100.00;149061.88;10587444;28;20049;-69
2023/11/26 20:34:33;;;;;;;5.05;4.55;;;;;;;1.50;100.00;149046.47;10581302;28;20036;-69
2023/11/26 20:39:35;;;;;;;5.75;5.05;;;;;;;1.51;100.00;149047.78;10588441;28;20056;-70
2023/11/26 20:44:39;;;;;;;6.70;6.00;;;;;;;1.35;100.00;149006.75;10589249;28;20047;-69
2023/11/26 20:49:44;;;;;;;6.18;5.57;;;;;;;1.60;100.00;149069.59;10589113;28;20067;-68
2023/11/26 20:54:47;;;;;;;6.43;5.82;;;;;;;1.51;100.00;149047.78;10589657;28;20035;-68
2023/11/26 20:59:49;;;;;;;5.78;5.28;;;;;;;1.45;100.00;149032.38;10589989;28;20073;-69
2023/11/26 21:04:51;;;;;;;6.72;5.72;;;;;;;1.51;100.00;149049.06;10589434;28;20047;-68
2023/11/26 21:09:53;;;;;;;7.75;6.85;;;;;;;1.34;100.00;149005.47;10589108;28;20055;-68
2023/11/26 21:14:55;;;;;;;8.43;7.40;;;;;;;1.29;100.00;148991.41;10588875;27;20036;-68
2023/11/26 21:19:56;;;;;;;8.20;6.45;;;;;;;1.32;100.00;148999.06;10587697;28;20040;-68
2023/11/26 21:24:58;;;;;;;7.85;6.30;;;;;;;1.36;100.00;149009.31;10587345;28;20088;-69
2023/11/26 21:30:01;;;;;;;11.05;7.70;;;;;;;1.56;100.00;149060.59;10586331;28;20059;-69
2023/11/26 21:35:03;;;;;;;9.07;7.28;;;;;;;1.33;100.00;149001.59;10586359;28;20077;-68
2023/11/26 21:40:07;;;;;;;7.63;6.93;;;;;;;1.36;100.00;149010.59;10585888;28;20048;-68
2023/11/26 21:45:10;;;;;;;7.70;6.68;;;;;;;1.23;100.00;148977.25;10587451;28;20036;-68
2023/11/26 21:50:12;;;;;;;7.13;6.40;;;;;;;1.36;100.00;149010.59;10587162;28;20436;-69
2023/11/26 21:55:13;;;;;;;7.18;6.45;;;;;;;1.56;100.00;149059.31;10586491;28;20053;-68
2023/11/26 22:00:15;;;;;;;5.95;5.35;;;;;;;1.45;100.00;149033.66;10587060;28;20097;-69
2023/11/26 22:05:18;;;;;;;6.95;6.25;;;;;;;1.50;100.00;149045.19;10587710;28;20039;-68
2023/11/26 22:10:19;;;;;;;6.75;6.03;;;;;;;1.73;100.00;149104.19;10586930;28;20069;-68
2023/11/26 22:15:22;;;;;;;5.97;5.38;;;;;;;1.88;100.00;149141.34;10567662;28;20134;-68
2023/11/26 22:20:23;;;;;;;5.93;5.43;;;;;;;1.82;100.00;149126.00;10584909;28;20046;-69
2023/11/26 22:25:25;;;;;;;5.68;5.07;;;;;;;1.59;100.00;149066.97;10586099;28;20054;-69
2023/11/26 22:30:27;;;;;;;5.53;4.40;;;;;;;1.61;100.00;149072.13;10584807;28;20130;-69
2023/11/26 22:35:29;;;;;;;5.35;4.95;;;;;;;1.57;100.00;149061.88;10584420;28;20459;-69
2023/11/26 22:40:30;;;;;;;6.35;5.53;;;;;;;1.53;100.00;149052.91;10583506;28;20066;-69
2023/11/26 22:45:32;;;;;;;5.13;4.72;;;;;;;1.37;100.00;149011.88;10582898;28;20040;-68
2023/11/26 22:50:38;;;;;;;6.38;5.78;;;;;;;1.39;100.00;149017.03;10583126;28;20040;-67
2023/11/26 22:55:53;;;;;;;6.68;5.78;;;;;;;1.46;100.00;149034.94;10566395;28;20048;-68
2023/11/26 23:00:54;;;;;;;7.03;5.82;;;;;;;1.29;100.00;148991.41;10583620;28;20035;-69
2023/11/26 23:05:59;;;;;;;10.45;7.45;;;;;;;1.23;100.00;148977.25;10583268;28;20039;-68
2023/11/26 23:11:01;;;;;;;7.78;7.00;;;;;;;1.18;100.00;148964.47;10583032;28;20417;-68